Jump to content


UNITED AIRLINES FLIGHT UA880 FLOWN ON 03-27-2018 BY CAPTAIN JIM BOERMAN

Pilot StatsCaptain Jim Boerman (LDP136) • 4,870.7 total hours • 1,472 total flights [View Logbook]
FLIGHT DETAILS
StatusReceived and approved on 2018-03-27 at 06:03:41
Origin AirportGeorge Bush Intercontinental-H (KIAH) • Houston, Texas, United States (97 feet MSL)
Filed Flight PlanKIAH RAECN J29 MEM Q34 SWAPP J42 BKW J147 CSN J48 BYRDD J230 COPES J75 BOS J575 TUSKY N146C NICSO NATT GISTI SLANY UL9 DIKAS UL18 GAVGO UL9 LINDY EGLL
Destination AirportHeathrow (EGLL) • London, United Kingdom (83 feet MSL)
Alternate AirportStansted (EGSS) • London, United Kingdom (348 feet MSL)
AirlineUnited Airlines
AircraftBoeing 777-200LR (77L / B777-200LR)
FS Aircraft UsedPMDG 777-222LR United Airlines (Merger - Fictional)
Cruising AltitudeFL350
Distance Flown4,192 nautical miles
Passengers Onboard148 passengers (49.17% full)
DEPARTURE DETAILS
Time Out20:40:52
Taxi Data519,432 lbs total with 134,508 lbs of fuel onboard
Takeoff Data20:56:39 (16 minutes after leaving gate/ramp) • 517,556 lbs total • 7° pitch at 182 knots
Departure METARKIAH 262353Z 13016KT 10SM SCT023 BKN034 BKN250 24/20 A2992 RMK AO2 PK WND 14029/2314 SLP130 T02440200 10283 20244 55004
ARRIVAL DETAILS
Landing Data11:27:47 • 401,910 lbs total • 2° pitch doing 133 knots at a rate of -306.81 feet/minute with 15,838 lbs of fuel onboard
Time In11:43:15 (15 minutes after landing)
Ramp Weight400,762 lbs total
Total Fuel Used118,670 lbs
Total Block Time09:02:20 (9 hours) while 31 minutes were spent on the ground
Arrival METAREGLL 271020Z AUTO 25008KT 9999 OVC006 09/09 Q1005 NOSIG
MISCELLANEOUS DETAILS
LiveDISPATCH Version4.8.3.1
FS Version
FSUIPC Version5.12
OS VersionWindows 7 32-bit
Screen Resolution1920 x 1080
Pilot's CommentsNo Comments Reported
FLIGHT MAP